Time;durP1;ratioP1;P1;durP2;ratioP2;P2;SDS_P1;SDS_P2;PMS_P1;PMS_P2;Temp;Humidity;BMP_temperature;BMP_pressure;BME280_temperature;BME280_humidity;BME280_pressure;Samples;Min_cycle;Max_cycle;Signal;HPM_P1;HPM_P2
2023/08/03 00:01:47;;;;;;;2.42;0.85;;;;;;;17.58;81.19;98891.41;5052560;28;20067;-77
2023/08/03 00:04:12;;;;;;;3.15;0.93;;;;;;;17.54;81.67;98900.88;5051435;28;20055;-77
2023/08/03 00:06:37;;;;;;;1.95;0.90;;;;;;;17.59;81.53;98897.81;5052499;28;20037;-77
2023/08/03 00:09:03;;;;;;;1.35;0.70;;;;;;;17.63;81.73;98902.38;5052625;28;20159;-77
2023/08/03 00:11:28;;;;;;;1.27;0.73;;;;;;;17.64;81.36;98912.47;5057547;28;20112;-77
2023/08/03 00:13:53;;;;;;;1.88;0.95;;;;;;;17.58;81.88;98915.84;5072215;28;20024;-77
2023/08/03 00:16:19;;;;;;;2.95;1.02;;;;;;;17.59;81.72;98907.06;5071387;28;20044;-76
2023/08/03 00:18:44;;;;;;;1.92;1.08;;;;;;;17.61;81.35;98907.53;5072505;28;20024;-76
2023/08/03 00:21:09;;;;;;;3.25;1.60;;;;;;;17.54;81.76;98909.28;5071887;28;20032;-77
2023/08/03 00:23:35;;;;;;;6.90;1.98;;;;;;;17.60;81.69;98916.28;5071322;28;20035;-77
2023/08/03 00:26:00;;;;;;;4.85;1.80;;;;;;;17.64;81.80;98914.44;5072208;28;20031;-77
2023/08/03 00:28:25;;;;;;;6.20;2.28;;;;;;;17.60;81.79;98925.53;5069831;28;20074;-76
2023/08/03 00:30:51;;;;;;;5.47;1.80;;;;;;;17.59;82.07;98928.69;5059083;28;20059;-76
2023/08/03 00:33:16;;;;;;;4.18;2.20;;;;;;;17.67;81.65;98930.56;5071839;28;20119;-77
2023/08/03 00:35:41;;;;;;;8.23;2.20;;;;;;;17.70;81.62;98945.91;5072115;28;20103;-77
2023/08/03 00:38:07;;;;;;;7.47;2.83;;;;;;;17.64;82.00;98943.31;5071116;28;20017;-77
2023/08/03 00:40:33;;;;;;;6.32;2.30;;;;;;;17.67;81.77;98951.03;5071665;28;20028;-76
2023/08/03 00:42:59;;;;;;;7.18;2.63;;;;;;;17.72;81.77;98952.78;5071934;28;20036;-76
2023/08/03 00:45:24;;;;;;;6.07;2.95;;;;;;;17.71;82.09;98955.94;5070959;28;20032;-77
2023/08/03 00:47:49;;;;;;;8.13;2.97;;;;;;;17.72;82.36;98966.00;5063448;28;20038;-77
2023/08/03 00:50:15;;;;;;;6.53;3.20;;;;;;;17.73;82.29;98974.09;5070969;28;20056;-77
2023/08/03 00:52:40;;;;;;;6.82;3.35;;;;;;;17.68;82.57;98968.69;5071103;28;20523;-77
2023/08/03 00:55:06;;;;;;;6.50;3.03;;;;;;;17.67;83.05;98981.88;5071460;28;20036;-77
2023/08/03 00:57:31;;;;;;;7.10;3.20;;;;;;;17.72;82.96;98988.44;5071757;28;20058;-77
2023/08/03 00:59:56;;;;;;;8.90;3.75;;;;;;;17.72;82.95;98988.44;5071153;28;20027;-77
2023/08/03 01:02:22;;;;;;;8.68;3.67;;;;;;;17.68;83.34;98996.72;5068975;28;20028;-77
2023/08/03 01:04:48;;;;;;;9.85;4.35;;;;;;;17.70;83.05;99004.81;5070387;28;20029;-77
2023/08/03 01:07:14;;;;;;;6.95;4.35;;;;;;;17.66;83.07;99007.50;5070647;28;20029;-78
2023/08/03 01:09:39;;;;;;;7.70;4.00;;;;;;;17.68;83.01;98999.53;5071453;28;20116;-77
2023/08/03 01:12:05;;;;;;;8.55;3.97;;;;;;;17.69;83.21;99006.81;5071441;28;20036;-77
2023/08/03 01:14:30;;;;;;;6.63;4.55;;;;;;;17.66;83.16;99004.69;5070320;28;20537;-76
2023/08/03 01:16:56;;;;;;;11.20;4.80;;;;;;;17.61;83.39;99013.34;5071288;28;20123;-77
2023/08/03 01:19:22;;;;;;;8.60;4.25;;;;;;;17.63;83.33;99013.78;5071354;28;20050;-76
2023/08/03 01:21:49;;;;;;;8.50;4.72;;;;;;;17.61;83.27;99013.34;5040571;28;20040;-77
2023/08/03 01:24:14;;;;;;;9.45;4.18;;;;;;;17.59;83.66;99030.50;5051304;28;20021;-77
2023/08/03 01:26:40;;;;;;;8.73;4.32;;;;;;;17.63;83.14;99022.22;5050668;28;20045;-77
2023/08/03 01:29:05;;;;;;;7.22;4.32;;;;;;;17.67;83.19;99026.78;5051047;28;20036;-77
2023/08/03 01:31:31;;;;;;;6.53;4.28;;;;;;;17.65;83.10;99047.94;5051122;28;20070;-77
2023/08/03 01:33:57;;;;;;;6.60;3.58;;;;;;;17.63;83.37;99044.66;5050261;28;20464;-77
2023/08/03 01:36:22;;;;;;;4.70;3.35;;;;;;;17.67;82.92;99046.41;5051088;28;20040;-76
2023/08/03 01:38:57;;;;;;;8.90;3.40;;;;;;;17.67;83.22;99043.63;5064953;28;20037;-76
2023/08/03 01:41:22;;;;;;;6.70;3.17;;;;;;;17.70;82.98;99044.91;5070872;28;20032;-77
2023/08/03 01:44:20;;;;;;;5.00;3.20;;;;;;;17.72;82.97;99050.19;5071192;28;20028;-76
2023/08/03 01:46:45;;;;;;;6.80;3.20;;;;;;;17.71;83.10;99043.75;5071064;28;20035;-76
2023/08/03 01:49:10;;;;;;;7.25;3.20;;;;;;;17.74;82.73;99048.69;5069829;28;20033;-77
2023/08/03 01:51:36;;;;;;;7.22;2.80;;;;;;;17.74;82.95;99050.66;5071010;28;20032;-77
2023/08/03 01:54:01;;;;;;;5.68;2.90;;;;;;;17.70;83.05;99052.53;5068114;28;20025;-76
2023/08/03 01:56:27;;;;;;;6.65;2.72;;;;;;;17.73;82.88;99051.84;5067504;28;20369;-77
2023/08/03 01:58:52;;;;;;;7.30;2.42;;;;;;;17.67;82.99;99057.66;5071105;28;20040;-77
2023/08/03 02:01:17;;;;;;;5.18;2.42;;;;;;;17.72;82.97;99058.59;5073474;28;20080;-77
2023/08/03 02:03:42;;;;;;;6.97;2.40;;;;;;;17.76;82.84;99056.78;5074319;28;20150;-77
2023/08/03 02:06:08;;;;;;;6.60;2.15;;;;;;;17.75;82.94;99046.72;5074943;28;20032;-77
2023/08/03 02:08:33;;;;;;;5.90;1.70;;;;;;;17.72;82.53;99053.78;5074899;28;20547;-77
2023/08/03 02:10:58;;;;;;;7.20;2.10;;;;;;;17.73;82.78;99058.28;5069673;28;20499;-77
2023/08/03 02:13:24;;;;;;;4.70;2.17;;;;;;;17.68;82.83;99061.25;5074789;28;20153;-76
2023/08/03 02:15:49;;;;;;;7.03;2.33;;;;;;;17.65;82.97;99050.75;5073595;28;20063;-76
2023/08/03 02:18:14;;;;;;;8.20;2.72;;;;;;;17.69;82.91;99059.31;5074794;28;20099;-77
2023/08/03 02:20:40;;;;;;;7.50;2.42;;;;;;;17.63;82.88;99056.69;5074433;28;20016;-77
2023/08/03 02:23:05;;;;;;;9.25;3.08;;;;;;;17.56;83.09;99050.00;5073907;28;20916;-77
2023/08/03 02:25:31;;;;;;;14.20;3.20;;;;;;;17.58;83.04;99047.69;5071190;28;20456;-77
2023/08/03 02:27:56;;;;;;;9.90;3.15;;;;;;;17.53;83.34;99057.13;5069890;28;20033;-77
2023/08/03 02:30:21;;;;;;;11.48;3.20;;;;;;;17.58;83.34;99050.47;5073792;28;20024;-77
2023/08/03 02:32:47;;;;;;;11.73;3.10;;;;;;;17.58;83.18;99053.28;5074459;28;20048;-77
2023/08/03 02:35:12;;;;;;;10.48;3.22;;;;;;;17.56;83.08;99050.00;5074217;28;20024;-77
2023/08/03 02:37:37;;;;;;;9.13;3.25;;;;;;;17.52;83.15;99052.66;5073525;28;20071;-77
2023/08/03 02:40:03;;;;;;;12.23;3.75;;;;;;;17.54;83.21;99057.94;5074461;28;20033;-77
2023/08/03 02:42:29;;;;;;;12.93;3.55;;;;;;;17.52;83.24;99049.03;5070486;28;20032;-77
2023/08/03 02:44:54;;;;;;;12.93;3.65;;;;;;;17.53;82.84;99048.72;5073028;28;20028;-77
2023/08/03 02:47:19;;;;;;;11.30;3.35;;;;;;;17.55;83.01;99046.38;5073972;28;20032;-77
2023/08/03 02:49:44;;;;;;;13.68;3.58;;;;;;;17.54;82.98;99046.72;5074049;28;20033;-77
2023/08/03 02:52:10;;;;;;;15.95;3.75;;;;;;;17.51;82.63;99048.22;5073073;28;20033;-76
2023/08/03 02:54:35;;;;;;;10.88;3.20;;;;;;;17.53;82.59;99053.50;5073855;28;20029;-77
2023/08/03 02:57:00;;;;;;;12.73;3.55;;;;;;;17.51;82.69;99053.00;5074265;28;20033;-77
2023/08/03 02:59:26;;;;;;;10.80;3.35;;;;;;;17.48;82.72;99051.72;5070542;28;20028;-77
2023/08/03 03:01:51;;;;;;;13.45;3.47;;;;;;;17.53;82.64;99056.31;5070957;28;20115;-77
2023/08/03 03:04:16;;;;;;;12.50;3.33;;;;;;;17.49;82.30;99049.72;5073979;28;20035;-77
2023/08/03 03:06:42;;;;;;;13.63;3.60;;;;;;;17.46;82.79;99059.66;5073029;28;20024;-77
2023/08/03 03:09:07;;;;;;;13.45;3.92;;;;;;;17.46;82.97;99072.88;5073819;28;20115;-76
2023/08/03 03:11:33;;;;;;;12.82;3.30;;;;;;;17.39;82.85;99079.00;5073328;28;20033;-77
2023/08/03 03:13:58;;;;;;;14.38;3.33;;;;;;;17.40;83.15;99075.84;5072775;28;20070;-77
2023/08/03 03:16:25;;;;;;;12.02;3.33;;;;;;;17.40;83.12;99083.44;5070234;28;20056;-76
2023/08/03 03:18:51;;;;;;;12.23;3.38;;;;;;;17.38;82.98;99089.41;5072543;28;20132;-76
2023/08/03 03:21:16;;;;;;;14.15;3.55;;;;;;;17.37;83.35;99081.31;5072466;28;20119;-77
2023/08/03 03:23:42;;;;;;;10.93;3.42;;;;;;;17.40;83.05;99069.44;5073638;28;20031;-77
2023/08/03 03:26:07;;;;;;;8.98;2.95;;;;;;;17.33;83.43;99075.59;5072761;28;20024;-77
2023/08/03 03:28:32;;;;;;;7.90;2.83;;;;;;;17.33;83.60;99081.22;5073068;28;20421;-77
2023/08/03 03:30:57;;;;;;;9.93;2.90;;;;;;;17.32;83.59;99087.16;5073203;28;20024;-77
2023/08/03 03:33:23;;;;;;;9.93;2.85;;;;;;;17.35;83.76;99092.91;5072510;28;20059;-77
2023/08/03 03:35:48;;;;;;;11.43;2.50;;;;;;;17.34;83.59;99094.06;5069419;28;20140;-76
2023/08/03 03:38:13;;;;;;;9.43;2.92;;;;;;;17.31;83.45;99102.34;5072994;28;20067;-76
2023/08/03 03:40:39;;;;;;;13.38;3.10;;;;;;;17.32;83.58;99110.41;5072590;28;20021;-77
2023/08/03 03:43:04;;;;;;;11.18;2.92;;;;;;;17.37;83.64;99107.41;5073278;28;20380;-77
2023/08/03 03:45:29;;;;;;;8.60;2.53;;;;;;;17.35;83.56;99101.31;5072867;28;20043;-77
2023/08/03 03:47:55;;;;;;;9.57;2.88;;;;;;;17.36;83.54;99114.16;5072250;28;20021;-77
2023/08/03 03:50:21;;;;;;;7.57;2.42;;;;;;;17.36;83.33;99130.16;5072979;28;20468;-77
2023/08/03 03:52:47;;;;;;;13.93;3.20;;;;;;;17.33;83.62;99137.31;5069052;28;20020;-77
2023/08/03 03:55:12;;;;;;;7.68;2.78;;;;;;;17.33;83.41;99142.91;5071846;28;20028;-77
2023/08/03 03:57:38;;;;;;;10.02;2.35;;;;;;;17.31;83.87;99138.78;5072957;28;20115;-77
2023/08/03 04:00:05;;;;;;;10.80;3.10;;;;;;;17.26;84.11;99141.81;5072800;28;20511;-78
2023/08/03 04:02:30;;;;;;;7.47;2.33;;;;;;;17.28;83.99;99145.88;5071500;28;20035;-77
2023/08/03 04:04:55;;;;;;;7.30;2.35;;;;;;;17.28;83.88;99150.69;5072925;28;20020;-77
2023/08/03 04:07:21;;;;;;;7.72;2.38;;;;;;;17.28;83.95;99148.69;5072876;28;20515;-78
2023/08/03 04:09:46;;;;;;;6.82;2.17;;;;;;;17.32;84.08;99158.06;5067845;28;20039;-78
2023/08/03 04:12:12;;;;;;;5.72;2.33;;;;;;;17.32;83.64;99146.84;5072745;28;20028;-77
2023/08/03 04:14:38;;;;;;;7.57;2.22;;;;;;;17.27;83.90;99163.88;5072542;28;20240;-77
2023/08/03 04:17:03;;;;;;;6.93;2.30;;;;;;;17.26;84.05;99159.44;5071769;28;20122;-78
2023/08/03 04:19:29;;;;;;;6.07;2.17;;;;;;;17.23;84.13;99159.28;5072239;28;20379;-77
2023/08/03 04:21:54;;;;;;;10.18;2.67;;;;;;;17.22;84.20;99168.88;5072593;28;20110;-77
2023/08/03 04:24:19;;;;;;;5.35;1.90;;;;;;;17.26;84.29;99179.06;5070663;28;20415;-78
2023/08/03 04:26:44;;;;;;;8.85;2.28;;;;;;;17.27;84.37;99186.31;5059206;28;20424;-77
2023/08/03 04:29:10;;;;;;;5.30;2.08;;;;;;;17.20;84.68;99174.81;5052069;28;20041;-77
2023/08/03 04:31:35;;;;;;;5.90;2.40;;;;;;;17.21;84.75;99193.25;5051308;28;20035;-78
2023/08/03 04:34:00;;;;;;;7.47;2.15;;;;;;;17.18;85.03;99194.78;5052418;28;20035;-77
2023/08/03 04:36:26;;;;;;;9.18;2.15;;;;;;;17.22;85.26;99202.53;5051723;28;20539;-77
2023/08/03 04:38:51;;;;;;;5.25;1.92;;;;;;;17.25;85.02;99201.81;5055406;28;20435;-77
2023/08/03 04:41:16;;;;;;;4.82;1.60;;;;;;;17.20;85.05;99205.66;5065722;28;20468;-77
2023/08/03 04:43:42;;;;;;;4.50;1.63;;;;;;;17.23;84.58;99216.19;5071847;28;20099;-78
2023/08/03 04:46:07;;;;;;;2.92;1.40;;;;;;;17.19;84.91;99226.44;5071863;28;20085;-77
2023/08/03 04:48:33;;;;;;;2.05;1.30;;;;;;;17.18;84.85;99225.63;5071800;28;20064;-77
2023/08/03 04:50:59;;;;;;;4.50;1.48;;;;;;;17.22;84.67;99222.16;5071483;28;20037;-77
2023/08/03 04:53:24;;;;;;;8.70;1.65;;;;;;;17.25;84.68;99236.31;5072046;28;20103;-77
2023/08/03 04:55:49;;;;;;;2.95;1.30;;;;;;;17.16;84.12;99225.13;5071895;28;20021;-77
2023/08/03 04:58:15;;;;;;;4.65;1.40;;;;;;;17.21;84.22;99238.13;5071086;28;20107;-77
2023/08/03 05:00:40;;;;;;;2.85;1.33;;;;;;;17.18;84.36;99236.84;5062966;28;20111;-77
2023/08/03 05:03:05;;;;;;;2.83;1.27;;;;;;;17.23;84.43;99233.00;5055584;28;20025;-77
2023/08/03 05:05:31;;;;;;;5.70;1.48;;;;;;;17.22;84.52;99241.78;5051433;28;20452;-77
2023/08/03 05:07:56;;;;;;;2.15;1.40;;;;;;;17.24;84.56;99245.06;5051950;28;20051;-77
2023/08/03 05:10:21;;;;;;;5.22;1.65;;;;;;;17.26;84.20;99251.97;5054961;28;20496;-78
2023/08/03 05:12:46;;;;;;;3.38;1.52;;;;;;;17.26;84.47;99254.78;5070957;28;20074;-77
2023/08/03 05:15:12;;;;;;;3.33;1.50;;;;;;;17.27;84.02;99250.00;5071509;28;20048;-77
2023/08/03 05:17:37;;;;;;;8.18;1.30;;;;;;;17.27;84.06;99250.00;5071752;28;20063;-77
2023/08/03 05:20:03;;;;;;;2.97;1.40;;;;;;;17.28;83.90;99262.84;5071158;28;20478;-77
2023/08/03 05:22:28;;;;;;;5.60;1.40;;;;;;;17.25;83.96;99281.19;5071703;28;20585;-77
2023/08/03 05:24:53;;;;;;;6.68;1.38;;;;;;;17.21;83.94;99290.56;5071804;28;20796;-77
2023/08/03 05:27:19;;;;;;;5.95;1.67;;;;;;;17.21;84.16;99290.56;5067202;28;20148;-77
2023/08/03 05:29:44;;;;;;;6.90;1.95;;;;;;;17.16;84.26;99289.59;5071229;28;20476;-77
2023/08/03 05:32:10;;;;;;;5.65;1.92;;;;;;;17.17;84.63;99287.63;5071610;28;20028;-77
2023/08/03 05:34:36;;;;;;;7.30;2.40;;;;;;;17.23;84.69;99299.50;5070674;28;20017;-77
2023/08/03 05:37:01;;;;;;;5.68;2.50;;;;;;;17.26;84.74;99294.03;5071393;28;20492;-76
2023/08/03 05:39:27;;;;;;;6.07;2.10;;;;;;;17.27;84.33;99301.28;5071493;28;20081;-76
2023/08/03 05:41:52;;;;;;;6.30;2.25;;;;;;;17.28;84.07;99305.72;5070728;28;20365;-77
2023/08/03 05:44:18;;;;;;;5.28;1.80;;;;;;;17.33;84.11;99301.91;5067482;28;20029;-76
2023/08/03 05:46:44;;;;;;;9.07;2.38;;;;;;;17.32;84.16;99312.31;5071517;28;20032;-76
2023/08/03 05:49:09;;;;;;;7.70;1.95;;;;;;;17.34;84.26;99312.00;5071874;28;20039;-77
2023/08/03 05:51:35;;;;;;;8.40;2.05;;;;;;;17.33;84.04;99316.78;5072037;28;20036;-76
2023/08/03 05:54:00;;;;;;;4.80;1.73;;;;;;;17.34;83.46;99324.03;5070137;28;20029;-76
2023/08/03 05:56:25;;;;;;;7.95;2.13;;;;;;;17.32;83.34;99320.72;5068562;28;20021;-76
2023/08/03 05:58:52;;;;;;;6.53;1.75;;;;;;;17.34;83.34;99335.25;5067899;28;20104;-76
2023/08/03 06:01:19;;;;;;;9.07;1.90;;;;;;;17.28;83.14;99330.97;5069721;28;20484;-77
2023/08/03 06:03:45;;;;;;;6.15;1.90;;;;;;;17.31;83.21;99333.09;5070916;28;20031;-77
2023/08/03 06:06:11;;;;;;;9.80;2.00;;;;;;;17.33;83.17;99343.97;5071136;28;20024;-77
2023/08/03 06:08:43;;;;;;;6.85;1.73;;;;;;;17.33;83.41;99339.22;5070228;28;20492;-77
2023/08/03 06:11:09;;;;;;;5.80;1.65;;;;;;;17.38;82.75;99353.03;5071087;28;20028;-77
2023/08/03 06:13:35;;;;;;;7.05;2.15;;;;;;;17.34;82.94;99352.06;5067434;28;20380;-76
2023/08/03 06:16:08;;;;;;;7.15;1.55;;;;;;;17.30;83.31;99359.50;5069931;28;20056;-76
2023/08/03 06:18:52;;;;;;;9.88;1.60;;;;;;;17.35;83.33;99362.13;5071407;28;20031;-76
2023/08/03 06:21:18;;;;;;;4.78;1.92;;;;;;;17.33;83.57;99364.47;5070921;28;20028;-76
2023/08/03 06:23:46;;;;;;;7.65;1.80;;;;;;;17.30;83.54;99364.28;5070073;28;20037;-77
2023/08/03 06:26:13;;;;;;;8.32;1.85;;;;;;;17.33;83.61;99372.88;5070978;28;20040;-77
2023/08/03 06:28:39;;;;;;;8.88;1.67;;;;;;;17.33;83.63;99375.69;5062952;28;20037;-76
2023/08/03 06:31:12;;;;;;;5.20;1.35;;;;;;;17.33;83.21;99374.81;5066998;28;20453;-77
2023/08/03 06:33:37;;;;;;;9.27;1.98;;;;;;;17.33;83.56;99374.81;5070342;28;20028;-76
2023/08/03 06:36:04;;;;;;;5.45;1.80;;;;;;;17.29;82.99;99377.50;5070132;28;20372;-76
2023/08/03 06:38:29;;;;;;;10.23;2.28;;;;;;;17.31;83.38;99383.59;5070553;28;20082;-76
2023/08/03 06:40:54;;;;;;;7.88;2.08;;;;;;;17.29;83.84;99385.06;5070546;28;20032;-77
2023/08/03 06:43:20;;;;;;;5.20;1.50;;;;;;;17.32;83.46;99393.63;5069898;28;20094;-76
2023/08/03 06:45:45;;;;;;;6.65;1.90;;;;;;;17.34;83.42;99399.75;5070950;28;20032;-76
2023/08/03 06:48:11;;;;;;;5.47;1.40;;;;;;;17.34;83.23;99404.53;5057454;28;20132;-76
2023/08/03 06:50:37;;;;;;;8.93;1.75;;;;;;;17.30;83.40;99411.97;5053777;28;20366;-76
2023/08/03 06:53:03;;;;;;;6.93;2.00;;;;;;;17.31;82.89;99408.81;5054178;28;20452;-77
2023/08/03 06:55:30;;;;;;;6.72;1.58;;;;;;;17.31;82.84;99417.25;5054180;28;20048;-77
2023/08/03 06:57:55;;;;;;;8.07;1.55;;;;;;;17.30;82.29;99423.19;5053086;28;20036;-77
2023/08/03 07:00:21;;;;;;;5.53;1.40;;;;;;;17.30;82.44;99426.81;5054180;28;20021;-77
2023/08/03 07:02:47;;;;;;;7.18;1.42;;;;;;;17.33;82.90;99425.31;5054273;28;20121;-77
2023/08/03 07:05:13;;;;;;;4.63;1.50;;;;;;;17.34;82.61;99433.41;5057307;28;20060;-77
2023/08/03 07:07:39;;;;;;;3.33;1.27;;;;;;;17.31;82.04;99430.44;5073541;28;20465;-77
2023/08/03 07:10:05;;;;;;;6.88;1.52;;;;;;;17.31;82.27;99436.88;5073966;28;20357;-77
2023/08/03 07:12:31;;;;;;;6.97;1.55;;;;;;;17.31;82.87;99450.06;5073094;28;20113;-77
2023/08/03 07:14:57;;;;;;;6.57;1.77;;;;;;;17.33;83.14;99451.41;5073498;28;20123;-77
2023/08/03 07:17:22;;;;;;;6.18;1.35;;;;;;;17.33;82.74;99454.19;5073418;28;20051;-77
2023/08/03 07:19:51;;;;;;;3.78;1.40;;;;;;;17.34;82.80;99457.81;5073047;28;20069;-77
2023/08/03 07:22:18;;;;;;;6.13;1.42;;;;;;;17.36;83.02;99475.94;5070649;28;20071;-77
2023/08/03 07:24:43;;;;;;;4.55;1.30;;;;;;;17.43;83.06;99453.00;5070066;28;20052;-77
2023/08/03 07:27:08;;;;;;;7.10;1.88;;;;;;;17.47;82.74;99475.63;5061768;28;20528;-77
2023/08/03 07:29:36;;;;;;;6.53;1.33;;;;;;;17.51;82.24;99470.97;5070617;28;20021;-77
2023/08/03 07:32:02;;;;;;;4.93;1.48;;;;;;;17.49;82.08;99462.91;5072698;28;20024;-77
2023/08/03 07:34:27;;;;;;;4.68;1.50;;;;;;;17.51;82.89;99476.59;5072681;28;20035;-77
2023/08/03 07:36:57;;;;;;;5.13;1.40;;;;;;;17.56;82.86;99477.22;5073059;28;20115;-77
2023/08/03 07:39:23;;;;;;;6.35;1.67;;;;;;;17.62;82.42;99477.91;5069459;28;20078;-77
2023/08/03 07:41:48;;;;;;;5.32;1.52;;;;;;;17.60;82.26;99481.00;5072970;28;20067;-77
2023/08/03 07:44:17;;;;;;;6.13;1.75;;;;;;;17.64;82.07;99481.19;5072721;28;20067;-77
2023/08/03 07:46:44;;;;;;;5.22;1.30;;;;;;;17.61;81.76;99481.88;5053819;28;20041;-77
2023/08/03 07:49:09;;;;;;;7.10;1.63;;;;;;;17.58;81.53;99485.34;5052555;28;20053;-77
2023/08/03 07:51:34;;;;;;;5.40;2.00;;;;;;;17.59;81.27;99487.78;5053033;28;20025;-77
2023/08/03 07:54:00;;;;;;;7.68;1.55;;;;;;;17.59;81.72;99504.63;5051827;28;20111;-77
2023/08/03 07:56:25;;;;;;;5.95;1.65;;;;;;;17.62;81.43;99503.16;5052857;28;20029;-77
2023/08/03 07:58:51;;;;;;;7.18;1.52;;;;;;;17.58;81.94;99502.16;5053041;28;20428;-77
2023/08/03 08:01:18;;;;;;;7.32;1.80;;;;;;;17.56;81.56;99516.50;5052365;28;20066;-77
2023/08/03 08:03:44;;;;;;;9.88;2.28;;;;;;;17.53;81.67;99528.41;5067188;28;20388;-77
2023/08/03 08:06:11;;;;;;;8.15;2.10;;;;;;;17.48;82.15;99536.16;5072704;28;20033;-77
2023/08/03 08:08:37;;;;;;;9.30;2.03;;;;;;;17.45;82.18;99534.00;5072020;28;20027;-77
2023/08/03 08:11:03;;;;;;;9.90;2.20;;;;;;;17.43;82.57;99539.97;5065664;28;20017;-76
2023/08/03 08:13:29;;;;;;;7.38;2.50;;;;;;;17.46;82.70;99544.09;5052081;28;20489;-77
2023/08/03 08:16:02;;;;;;;10.32;2.28;;;;;;;17.46;83.24;99555.31;5051509;28;20052;-77
2023/08/03 08:18:28;;;;;;;6.47;1.92;;;;;;;17.44;82.99;99550.03;5052570;28;20040;-77
2023/08/03 08:20:58;;;;;;;6.75;1.70;;;;;;;17.42;83.51;99555.97;5052255;28;20841;-77
2023/08/03 08:23:23;;;;;;;9.48;1.85;;;;;;;17.44;83.75;99566.84;5051344;28;20473;-77
2023/08/03 08:25:48;;;;;;;8.13;1.88;;;;;;;17.45;84.01;99564.88;5052514;28;20043;-77
2023/08/03 08:28:14;;;;;;;7.28;1.80;;;;;;;17.47;83.75;99571.81;5056005;28;20447;-77
2023/08/03 08:30:39;;;;;;;6.78;1.50;;;;;;;17.48;83.54;99573.44;5067518;28;20055;-77
2023/08/03 08:33:05;;;;;;;5.15;1.50;;;;;;;17.45;82.82;99582.56;5071664;28;20086;-77
2023/08/03 08:35:31;;;;;;;7.60;2.10;;;;;;;17.45;83.59;99593.78;5072060;28;20030;-77
2023/08/03 08:37:59;;;;;;;6.35;1.75;;;;;;;17.45;83.24;99590.97;5071555;28;20028;-77
2023/08/03 08:40:24;;;;;;;5.20;1.70;;;;;;;17.46;83.32;99589.81;5072153;28;20451;-77
2023/08/03 08:42:54;;;;;;;5.30;1.67;;;;;;;17.49;83.66;99596.72;5071067;28;20032;-77
2023/08/03 08:45:19;;;;;;;6.25;1.67;;;;;;;17.49;83.47;99605.13;5070450;28;20028;-77
2023/08/03 08:47:47;;;;;;;7.75;1.83;;;;;;;17.47;83.35;99610.25;5065240;28;20078;-77
2023/08/03 08:50:14;;;;;;;3.75;1.50;;;;;;;17.46;83.44;99609.44;5071023;28;20033;-77
2023/08/03 08:52:44;;;;;;;5.10;1.70;;;;;;;17.47;83.63;99618.69;5071916;28;20107;-77
2023/08/03 08:55:21;;;;;;;3.88;1.40;;;;;;;17.55;83.37;99629.06;5071423;28;20031;-77
2023/08/03 08:57:47;;;;;;;4.85;1.40;;;;;;;17.54;83.33;99619.00;5071004;28;20116;-77
2023/08/03 09:00:13;;;;;;;4.15;1.10;;;;;;;17.53;83.28;99631.41;5071317;28;20443;-77
2023/08/03 09:02:38;;;;;;;3.95;1.27;;;;;;;17.50;83.08;99635.69;5071419;28;20040;-77
2023/08/03 09:05:21;;;;;;;4.15;1.20;;;;;;;17.55;83.15;99648.72;5065233;28;20143;-78
2023/08/03 09:08:11;;;;;;;3.30;1.25;;;;;;;17.53;83.53;99651.88;5051328;28;20037;-77
2023/08/03 09:10:53;;;;;;;3.40;1.00;;;;;;;17.51;83.42;99648.53;5051085;28;20097;-77
2023/08/03 09:13:32;;;;;;;4.43;1.20;;;;;;;17.51;83.45;99658.94;5051345;28;20443;-77
2023/08/03 09:15:59;;;;;;;3.33;1.15;;;;;;;17.48;83.66;99659.59;5051602;28;20484;-76
2023/08/03 09:18:27;;;;;;;3.60;1.38;;;;;;;17.47;83.63;99669.19;5050964;28;20112;-77
2023/08/03 09:21:13;;;;;;;2.13;0.90;;;;;;;17.50;84.28;99674.97;5052872;28;20024;-77
2023/08/03 09:23:38;;;;;;;3.55;1.13;;;;;;;17.54;84.09;99683.53;5050558;28;20068;-77
2023/08/03 09:26:04;;;;;;;2.33;1.05;;;;;;;17.57;84.38;99688.50;5050463;28;20407;-77
2023/08/03 09:28:43;;;;;;;2.15;0.95;;;;;;;17.57;83.92;99699.72;5051545;28;20037;-77
2023/08/03 09:31:10;;;;;;;3.80;1.20;;;;;;;17.57;84.36;99705.34;5051264;28;20021;-78
2023/08/03 09:33:36;;;;;;;4.88;1.50;;;;;;;17.56;84.03;99709.28;5050206;28;20028;-77
2023/08/03 09:36:11;;;;;;;6.50;1.52;;;;;;;17.59;84.42;99711.44;5051312;28;20029;-77
2023/08/03 09:38:37;;;;;;;4.90;1.52;;;;;;;17.61;84.83;99715.56;5051601;28;20016;-77
2023/08/03 09:41:03;;;;;;;6.95;1.40;;;;;;;17.63;84.75;99730.09;5051255;28;20106;-77
2023/08/03 09:43:28;;;;;;;7.75;2.03;;;;;;;17.61;85.03;99731.59;5051353;28;20488;-77
2023/08/03 09:45:57;;;;;;;4.78;1.55;;;;;;;17.63;85.12;99743.28;5050809;28;20044;-77
2023/08/03 09:48:23;;;;;;;9.48;2.08;;;;;;;17.60;84.91;99741.97;5050835;28;20028;-77
2023/08/03 09:50:58;;;;;;;8.02;2.00;;;;;;;17.66;84.84;99745.44;5050966;28;20020;-77
2023/08/03 09:53:35;;;;;;;9.77;2.25;;;;;;;17.66;84.74;99749.09;5050469;28;20041;-77
2023/08/03 09:56:01;;;;;;;9.85;2.40;;;;;;;17.71;85.70;99759.31;5053901;28;20017;-77
2023/08/03 09:58:49;;;;;;;8.45;1.98;;;;;;;17.75;85.55;99757.53;5050984;28;20040;-77
2023/08/03 10:01:24;;;;;;;7.93;2.15;;;;;;;17.74;86.01;99774.69;5050143;28;20098;-77
2023/08/03 10:03:54;;;;;;;8.57;2.47;;;;;;;17.73;85.87;99778.66;5051043;28;20033;-77
2023/08/03 10:06:27;;;;;;;9.77;2.47;;;;;;;17.74;86.19;99774.69;5050599;28;20036;-77
2023/08/03 10:08:56;;;;;;;13.27;2.67;;;;;;;17.75;86.32;99784.78;5050317;28;20025;-77
2023/08/03 10:11:24;;;;;;;8.18;2.15;;;;;;;17.80;86.74;99785.47;5051089;28;20044;-78
2023/08/03 10:13:51;;;;;;;8.35;2.28;;;;;;;17.84;86.73;99785.63;5051978;28;20033;-77
2023/08/03 10:16:18;;;;;;;8.13;2.70;;;;;;;17.86;87.72;99789.75;5068657;28;20416;-77
2023/08/03 10:18:45;;;;;;;5.47;2.00;;;;;;;17.95;87.88;99791.75;5070662;28;20020;-77
2023/08/03 10:21:11;;;;;;;7.00;2.10;;;;;;;18.01;87.67;99787.66;5070944;28;20448;-78
2023/08/03 10:23:38;;;;;;;10.77;2.40;;;;;;;18.13;88.60;99793.44;5065695;28;20073;-78
2023/08/03 10:26:05;;;;;;;6.03;1.83;;;;;;;18.24;89.01;99780.72;5074624;28;20136;-78
2023/08/03 10:28:40;;;;;;;5.00;2.08;;;;;;;18.36;88.81;99797.72;5073560;28;20048;-78
2023/08/03 10:31:11;;;;;;;7.30;2.40;;;;;;;18.42;87.45;99801.19;5074520;28;20077;-78
2023/08/03 10:33:51;;;;;;;8.00;2.00;;;;;;;18.45;87.20;99797.72;5074173;28;20035;-78
2023/08/03 10:36:26;;;;;;;4.30;1.50;;;;;;;18.52;86.78;99811.28;5073756;28;20028;-78
2023/08/03 10:38:51;;;;;;;8.50;2.05;;;;;;;18.55;86.16;99807.78;5073212;28;20060;-77
2023/08/03 10:41:24;;;;;;;6.13;2.08;;;;;;;18.56;86.23;99818.72;5067162;28;20078;-77
2023/08/03 10:44:22;;;;;;;6.50;1.67;;;;;;;18.57;85.25;99819.53;5073327;28;20036;-77
2023/08/03 10:46:49;;;;;;;5.57;1.80;;;;;;;18.50;85.15;99830.44;5029289;28;20032;-77
2023/08/03 10:49:23;;;;;;;7.28;2.30;;;;;;;18.49;85.08;99826.81;5073156;28;20107;-77
2023/08/03 10:52:08;;;;;;;6.13;1.98;;;;;;;18.50;84.78;99824.81;5074260;28;20040;-78
2023/08/03 10:54:34;;;;;;;7.90;2.40;;;;;;;18.51;84.45;99824.50;5074260;28;20028;-78
2023/08/03 10:57:19;;;;;;;6.13;1.88;;;;;;;18.57;84.56;99825.16;5073069;28;20024;-77
2023/08/03 10:59:46;;;;;;;7.07;1.92;;;;;;;18.66;85.82;99834.38;5062532;28;20032;-77
2023/08/03 11:02:25;;;;;;;5.28;1.95;;;;;;;18.72;85.31;99838.72;5069554;28;20360;-77
2023/08/03 11:04:52;;;;;;;7.78;2.20;;;;;;;18.73;85.08;99843.19;5073403;28;20033;-77
2023/08/03 11:07:37;;;;;;;8.07;2.15;;;;;;;18.72;84.15;99846.34;5073632;28;20023;-77
2023/08/03 11:10:05;;;;;;;9.35;2.13;;;;;;;18.63;83.77;99866.00;5073916;28;20055;-77
2023/08/03 11:12:31;;;;;;;6.80;2.10;;;;;;;18.63;84.32;99861.19;5072678;28;20027;-77
2023/08/03 11:14:59;;;;;;;5.47;2.00;;;;;;;18.62;83.64;99867.94;5073671;28;20048;-77
2023/08/03 11:17:29;;;;;;;8.63;2.03;;;;;;;18.61;84.29;99873.91;5069959;28;20033;-77
2023/08/03 11:19:56;;;;;;;7.93;2.53;;;;;;;18.58;85.06;99869.78;5069659;28;20043;-77
2023/08/03 11:22:23;;;;;;;7.60;2.58;;;;;;;18.57;85.63;99875.75;5073321;28;20029;-77
2023/08/03 11:24:51;;;;;;;11.05;2.83;;;;;;;18.50;85.96;99875.41;5072556;28;20472;-77
2023/08/03 11:27:18;;;;;;;7.75;2.67;;;;;;;18.47;86.18;99892.91;5073773;28;20036;-78
2023/08/03 11:29:43;;;;;;;9.15;2.90;;;;;;;18.41;86.55;99895.06;5073355;28;20052;-77
2023/08/03 11:32:11;;;;;;;7.90;2.60;;;;;;;18.41;86.83;99895.06;5072583;28;20071;-77